sensor_id;sensor_type;location;lat;lon;timestamp;P1;durP1;ratioP1;P2;durP2;ratioP2
66702;SDS011;60933;46.398;-63.798;2023-06-14T00:02:00;19.23;;;13.18;;
66702;SDS011;60933;46.398;-63.798;2023-06-14T00:04:26;18.63;;;13.20;;
66702;SDS011;60933;46.398;-63.798;2023-06-14T00:06:52;19.10;;;12.93;;
66702;SDS011;60933;46.398;-63.798;2023-06-14T00:09:22;19.98;;;13.38;;
66702;SDS011;60933;46.398;-63.798;2023-06-14T00:11:48;19.10;;;12.63;;
66702;SDS011;60933;46.398;-63.798;2023-06-14T00:14:14;19.48;;;12.93;;
66702;SDS011;60933;46.398;-63.798;2023-06-14T00:16:40;19.30;;;13.35;;
66702;SDS011;60933;46.398;-63.798;2023-06-14T00:19:08;20.77;;;12.10;;
66702;SDS011;60933;46.398;-63.798;2023-06-14T00:21:36;18.13;;;12.60;;
66702;SDS011;60933;46.398;-63.798;2023-06-14T00:24:03;20.90;;;12.40;;
66702;SDS011;60933;46.398;-63.798;2023-06-14T00:26:30;21.30;;;13.40;;
66702;SDS011;60933;46.398;-63.798;2023-06-14T00:28:57;19.10;;;13.35;;
66702;SDS011;60933;46.398;-63.798;2023-06-14T00:31:23;20.50;;;12.77;;
66702;SDS011;60933;46.398;-63.798;2023-06-14T00:33:49;22.38;;;15.85;;
66702;SDS011;60933;46.398;-63.798;2023-06-14T00:36:15;22.92;;;18.40;;
66702;SDS011;60933;46.398;-63.798;2023-06-14T00:38:41;20.42;;;15.32;;
66702;SDS011;60933;46.398;-63.798;2023-06-14T00:41:07;19.30;;;13.10;;
66702;SDS011;60933;46.398;-63.798;2023-06-14T00:43:33;23.48;;;13.45;;
66702;SDS011;60933;46.398;-63.798;2023-06-14T00:46:00;18.17;;;11.27;;
66702;SDS011;60933;46.398;-63.798;2023-06-14T00:48:26;19.23;;;11.65;;
66702;SDS011;60933;46.398;-63.798;2023-06-14T00:50:53;20.33;;;12.73;;
66702;SDS011;60933;46.398;-63.798;2023-06-14T00:53:21;18.17;;;11.65;;
66702;SDS011;60933;46.398;-63.798;2023-06-14T00:55:48;18.30;;;12.10;;
66702;SDS011;60933;46.398;-63.798;2023-06-14T00:58:14;18.83;;;11.93;;
66702;SDS011;60933;46.398;-63.798;2023-06-14T01:00:41;16.48;;;10.93;;
66702;SDS011;60933;46.398;-63.798;2023-06-14T01:03:08;18.45;;;11.50;;
66702;SDS011;60933;46.398;-63.798;2023-06-14T01:05:39;19.63;;;11.75;;
66702;SDS011;60933;46.398;-63.798;2023-06-14T01:08:11;16.27;;;10.63;;
66702;SDS011;60933;46.398;-63.798;2023-06-14T01:10:52;17.42;;;11.50;;
66702;SDS011;60933;46.398;-63.798;2023-06-14T01:13:36;18.40;;;12.13;;
66702;SDS011;60933;46.398;-63.798;2023-06-14T01:16:05;20.52;;;13.00;;
66702;SDS011;60933;46.398;-63.798;2023-06-14T01:18:33;17.70;;;12.48;;
66702;SDS011;60933;46.398;-63.798;2023-06-14T01:21:00;20.27;;;12.70;;
66702;SDS011;60933;46.398;-63.798;2023-06-14T01:23:31;18.70;;;10.73;;
66702;SDS011;60933;46.398;-63.798;2023-06-14T01:25:58;17.55;;;11.20;;
66702;SDS011;60933;46.398;-63.798;2023-06-14T01:28:28;17.25;;;10.15;;
66702;SDS011;60933;46.398;-63.798;2023-06-14T01:30:59;15.23;;;10.45;;
66702;SDS011;60933;46.398;-63.798;2023-06-14T01:33:31;16.80;;;10.50;;
66702;SDS011;60933;46.398;-63.798;2023-06-14T01:36:00;16.85;;;10.82;;
66702;SDS011;60933;46.398;-63.798;2023-06-14T01:38:28;18.50;;;10.73;;
66702;SDS011;60933;46.398;-63.798;2023-06-14T01:40:56;16.13;;;10.35;;
66702;SDS011;60933;46.398;-63.798;2023-06-14T01:43:25;24.45;;;12.93;;
66702;SDS011;60933;46.398;-63.798;2023-06-14T01:45:55;18.13;;;10.85;;
66702;SDS011;60933;46.398;-63.798;2023-06-14T01:48:24;17.00;;;10.43;;
66702;SDS011;60933;46.398;-63.798;2023-06-14T01:50:51;17.50;;;10.65;;
66702;SDS011;60933;46.398;-63.798;2023-06-14T01:53:18;17.70;;;9.88;;
66702;SDS011;60933;46.398;-63.798;2023-06-14T01:55:45;19.52;;;10.82;;
66702;SDS011;60933;46.398;-63.798;2023-06-14T01:58:14;16.27;;;10.02;;
66702;SDS011;60933;46.398;-63.798;2023-06-14T02:00:44;15.00;;;9.15;;
66702;SDS011;60933;46.398;-63.798;2023-06-14T02:03:10;15.38;;;9.63;;
66702;SDS011;60933;46.398;-63.798;2023-06-14T02:05:38;15.55;;;10.13;;
66702;SDS011;60933;46.398;-63.798;2023-06-14T02:08:05;14.57;;;9.35;;
66702;SDS011;60933;46.398;-63.798;2023-06-14T02:10:32;14.98;;;8.82;;
66702;SDS011;60933;46.398;-63.798;2023-06-14T02:12:58;15.10;;;8.27;;
66702;SDS011;60933;46.398;-63.798;2023-06-14T02:15:25;14.88;;;8.98;;
66702;SDS011;60933;46.398;-63.798;2023-06-14T02:17:58;14.23;;;8.20;;
66702;SDS011;60933;46.398;-63.798;2023-06-14T02:20:26;15.70;;;7.72;;
66702;SDS011;60933;46.398;-63.798;2023-06-14T02:22:52;13.65;;;7.85;;
66702;SDS011;60933;46.398;-63.798;2023-06-14T02:25:18;13.25;;;7.78;;
66702;SDS011;60933;46.398;-63.798;2023-06-14T02:27:44;12.45;;;7.65;;
66702;SDS011;60933;46.398;-63.798;2023-06-14T02:30:12;14.13;;;7.90;;
66702;SDS011;60933;46.398;-63.798;2023-06-14T02:32:40;12.18;;;7.13;;
66702;SDS011;60933;46.398;-63.798;2023-06-14T02:35:08;12.52;;;7.63;;
66702;SDS011;60933;46.398;-63.798;2023-06-14T02:37:35;12.48;;;7.15;;
66702;SDS011;60933;46.398;-63.798;2023-06-14T02:40:01;13.52;;;7.60;;
66702;SDS011;60933;46.398;-63.798;2023-06-14T02:42:27;13.90;;;7.78;;
66702;SDS011;60933;46.398;-63.798;2023-06-14T02:44:53;12.07;;;7.03;;
66702;SDS011;60933;46.398;-63.798;2023-06-14T02:47:19;13.75;;;7.85;;
66702;SDS011;60933;46.398;-63.798;2023-06-14T02:49:46;12.52;;;7.50;;
66702;SDS011;60933;46.398;-63.798;2023-06-14T02:52:12;12.20;;;8.05;;
66702;SDS011;60933;46.398;-63.798;2023-06-14T02:54:38;11.73;;;7.63;;
66702;SDS011;60933;46.398;-63.798;2023-06-14T02:57:05;11.52;;;7.65;;
66702;SDS011;60933;46.398;-63.798;2023-06-14T02:59:33;12.23;;;7.90;;
66702;SDS011;60933;46.398;-63.798;2023-06-14T03:02:00;12.05;;;7.20;;
66702;SDS011;60933;46.398;-63.798;2023-06-14T03:04:26;12.68;;;8.02;;
66702;SDS011;60933;46.398;-63.798;2023-06-14T03:06:54;14.50;;;8.23;;
66702;SDS011;60933;46.398;-63.798;2023-06-14T03:09:20;12.32;;;7.85;;
66702;SDS011;60933;46.398;-63.798;2023-06-14T03:11:47;11.43;;;6.97;;
66702;SDS011;60933;46.398;-63.798;2023-06-14T03:14:13;12.55;;;7.88;;
66702;SDS011;60933;46.398;-63.798;2023-06-14T03:16:39;14.15;;;8.50;;
66702;SDS011;60933;46.398;-63.798;2023-06-14T03:19:06;13.82;;;8.35;;
66702;SDS011;60933;46.398;-63.798;2023-06-14T03:21:32;13.02;;;8.40;;
66702;SDS011;60933;46.398;-63.798;2023-06-14T03:24:00;13.18;;;7.95;;
66702;SDS011;60933;46.398;-63.798;2023-06-14T03:26:28;12.77;;;7.32;;
66702;SDS011;60933;46.398;-63.798;2023-06-14T03:28:55;12.23;;;7.75;;
66702;SDS011;60933;46.398;-63.798;2023-06-14T03:31:22;15.95;;;8.45;;
66702;SDS011;60933;46.398;-63.798;2023-06-14T03:33:49;12.80;;;8.32;;
66702;SDS011;60933;46.398;-63.798;2023-06-14T03:36:15;13.25;;;8.13;;
66702;SDS011;60933;46.398;-63.798;2023-06-14T03:38:41;14.10;;;8.00;;
66702;SDS011;60933;46.398;-63.798;2023-06-14T03:41:07;13.55;;;8.63;;
66702;SDS011;60933;46.398;-63.798;2023-06-14T03:43:33;14.00;;;8.65;;
66702;SDS011;60933;46.398;-63.798;2023-06-14T03:46:00;15.65;;;8.45;;
66702;SDS011;60933;46.398;-63.798;2023-06-14T03:48:26;12.52;;;8.43;;
66702;SDS011;60933;46.398;-63.798;2023-06-14T03:50:52;13.88;;;8.82;;
66702;SDS011;60933;46.398;-63.798;2023-06-14T03:53:20;15.48;;;8.85;;
66702;SDS011;60933;46.398;-63.798;2023-06-14T03:55:48;10.32;;;6.93;;
66702;SDS011;60933;46.398;-63.798;2023-06-14T03:58:17;12.60;;;7.75;;
66702;SDS011;60933;46.398;-63.798;2023-06-14T04:00:44;12.07;;;7.45;;
66702;SDS011;60933;46.398;-63.798;2023-06-14T04:03:10;11.63;;;7.85;;
66702;SDS011;60933;46.398;-63.798;2023-06-14T04:05:38;12.30;;;7.38;;
66702;SDS011;60933;46.398;-63.798;2023-06-14T04:08:08;13.25;;;8.50;;
66702;SDS011;60933;46.398;-63.798;2023-06-14T04:10:39;12.02;;;7.57;;
66702;SDS011;60933;46.398;-63.798;2023-06-14T04:13:06;11.35;;;7.13;;
66702;SDS011;60933;46.398;-63.798;2023-06-14T04:15:32;13.15;;;8.48;;
66702;SDS011;60933;46.398;-63.798;2023-06-14T04:17:59;12.80;;;8.68;;
66702;SDS011;60933;46.398;-63.798;2023-06-14T04:20:25;14.57;;;8.60;;
66702;SDS011;60933;46.398;-63.798;2023-06-14T04:22:52;15.15;;;7.82;;
66702;SDS011;60933;46.398;-63.798;2023-06-14T04:25:18;14.15;;;8.57;;
66702;SDS011;60933;46.398;-63.798;2023-06-14T04:27:46;13.40;;;8.32;;
66702;SDS011;60933;46.398;-63.798;2023-06-14T04:30:12;12.65;;;8.77;;
66702;SDS011;60933;46.398;-63.798;2023-06-14T04:32:38;13.75;;;8.82;;
66702;SDS011;60933;46.398;-63.798;2023-06-14T04:35:08;13.93;;;8.07;;
66702;SDS011;60933;46.398;-63.798;2023-06-14T04:37:34;12.90;;;8.52;;
66702;SDS011;60933;46.398;-63.798;2023-06-14T04:40:05;14.10;;;8.68;;
66702;SDS011;60933;46.398;-63.798;2023-06-14T04:42:32;14.52;;;8.80;;
66702;SDS011;60933;46.398;-63.798;2023-06-14T04:44:58;16.05;;;9.30;;
66702;SDS011;60933;46.398;-63.798;2023-06-14T04:47:24;13.50;;;8.38;;
66702;SDS011;60933;46.398;-63.798;2023-06-14T04:49:55;14.73;;;8.77;;
66702;SDS011;60933;46.398;-63.798;2023-06-14T04:52:23;13.82;;;8.82;;
66702;SDS011;60933;46.398;-63.798;2023-06-14T04:54:51;13.88;;;8.65;;
66702;SDS011;60933;46.398;-63.798;2023-06-14T04:57:19;16.50;;;9.60;;
66702;SDS011;60933;46.398;-63.798;2023-06-14T04:59:47;15.55;;;9.55;;
66702;SDS011;60933;46.398;-63.798;2023-06-14T05:02:14;12.25;;;8.32;;
66702;SDS011;60933;46.398;-63.798;2023-06-14T05:04:40;15.55;;;10.38;;
66702;SDS011;60933;46.398;-63.798;2023-06-14T05:07:06;14.93;;;9.35;;
66702;SDS011;60933;46.398;-63.798;2023-06-14T05:09:34;16.00;;;10.05;;
66702;SDS011;60933;46.398;-63.798;2023-06-14T05:12:01;14.73;;;9.75;;
66702;SDS011;60933;46.398;-63.798;2023-06-14T05:14:28;14.52;;;9.57;;
66702;SDS011;60933;46.398;-63.798;2023-06-14T05:16:54;15.80;;;10.60;;
66702;SDS011;60933;46.398;-63.798;2023-06-14T05:19:20;15.70;;;9.05;;
66702;SDS011;60933;46.398;-63.798;2023-06-14T05:21:47;15.98;;;10.00;;
66702;SDS011;60933;46.398;-63.798;2023-06-14T05:24:15;14.30;;;8.93;;
66702;SDS011;60933;46.398;-63.798;2023-06-14T05:29:11;14.43;;;9.43;;
66702;SDS011;60933;46.398;-63.798;2023-06-14T05:31:37;15.80;;;9.43;;
66702;SDS011;60933;46.398;-63.798;2023-06-14T05:34:03;12.35;;;8.05;;
66702;SDS011;60933;46.398;-63.798;2023-06-14T05:36:30;14.30;;;9.02;;
66702;SDS011;60933;46.398;-63.798;2023-06-14T05:38:56;17.80;;;9.98;;
66702;SDS011;60933;46.398;-63.798;2023-06-14T05:41:26;12.95;;;8.57;;
66702;SDS011;60933;46.398;-63.798;2023-06-14T05:43:53;13.75;;;8.73;;
66702;SDS011;60933;46.398;-63.798;2023-06-14T05:46:20;15.57;;;10.18;;
66702;SDS011;60933;46.398;-63.798;2023-06-14T05:48:49;14.82;;;9.60;;
66702;SDS011;60933;46.398;-63.798;2023-06-14T05:51:16;16.85;;;10.45;;
66702;SDS011;60933;46.398;-63.798;2023-06-14T05:53:45;17.92;;;10.25;;
66702;SDS011;60933;46.398;-63.798;2023-06-14T05:56:12;13.10;;;8.35;;
66702;SDS011;60933;46.398;-63.798;2023-06-14T05:58:38;13.18;;;8.45;;
66702;SDS011;60933;46.398;-63.798;2023-06-14T06:01:05;15.00;;;9.13;;
66702;SDS011;60933;46.398;-63.798;2023-06-14T06:03:31;13.38;;;8.30;;
66702;SDS011;60933;46.398;-63.798;2023-06-14T06:05:57;13.50;;;8.45;;
66702;SDS011;60933;46.398;-63.798;2023-06-14T06:08:24;15.57;;;9.57;;
66702;SDS011;60933;46.398;-63.798;2023-06-14T06:10:51;15.30;;;9.40;;
66702;SDS011;60933;46.398;-63.798;2023-06-14T06:13:17;15.13;;;9.68;;
66702;SDS011;60933;46.398;-63.798;2023-06-14T06:15:43;13.30;;;8.32;;
66702;SDS011;60933;46.398;-63.798;2023-06-14T06:18:09;14.85;;;9.63;;
66702;SDS011;60933;46.398;-63.798;2023-06-14T06:20:35;15.85;;;9.65;;
66702;SDS011;60933;46.398;-63.798;2023-06-14T06:23:01;16.63;;;10.35;;
66702;SDS011;60933;46.398;-63.798;2023-06-14T06:25:31;16.20;;;10.45;;
66702;SDS011;60933;46.398;-63.798;2023-06-14T06:27:57;16.38;;;9.63;;
66702;SDS011;60933;46.398;-63.798;2023-06-14T06:30:23;17.55;;;10.13;;
66702;SDS011;60933;46.398;-63.798;2023-06-14T06:32:50;15.23;;;9.73;;
66702;SDS011;60933;46.398;-63.798;2023-06-14T06:35:17;15.18;;;9.93;;
66702;SDS011;60933;46.398;-63.798;2023-06-14T06:37:43;17.48;;;10.88;;
66702;SDS011;60933;46.398;-63.798;2023-06-14T06:40:10;18.23;;;10.05;;
66702;SDS011;60933;46.398;-63.798;2023-06-14T06:42:36;16.95;;;10.10;;
66702;SDS011;60933;46.398;-63.798;2023-06-14T06:45:02;15.95;;;10.60;;
66702;SDS011;60933;46.398;-63.798;2023-06-14T06:47:29;15.05;;;9.88;;
66702;SDS011;60933;46.398;-63.798;2023-06-14T06:49:55;16.83;;;10.45;;
66702;SDS011;60933;46.398;-63.798;2023-06-14T06:52:21;18.48;;;10.88;;
66702;SDS011;60933;46.398;-63.798;2023-06-14T06:54:48;17.05;;;9.77;;
66702;SDS011;60933;46.398;-63.798;2023-06-14T06:57:15;17.38;;;10.48;;
66702;SDS011;60933;46.398;-63.798;2023-06-14T06:59:41;18.55;;;11.35;;
66702;SDS011;60933;46.398;-63.798;2023-06-14T07:02:08;17.63;;;10.88;;
66702;SDS011;60933;46.398;-63.798;2023-06-14T07:04:34;17.77;;;10.38;;
66702;SDS011;60933;46.398;-63.798;2023-06-14T07:07:00;17.27;;;10.52;;
66702;SDS011;60933;46.398;-63.798;2023-06-14T07:09:26;17.02;;;10.60;;
66702;SDS011;60933;46.398;-63.798;2023-06-14T07:11:52;17.77;;;11.07;;
66702;SDS011;60933;46.398;-63.798;2023-06-14T07:14:19;17.88;;;10.88;;
66702;SDS011;60933;46.398;-63.798;2023-06-14T07:16:46;14.50;;;9.30;;
66702;SDS011;60933;46.398;-63.798;2023-06-14T07:19:12;17.83;;;11.68;;
66702;SDS011;60933;46.398;-63.798;2023-06-14T07:21:39;16.00;;;10.93;;
66702;SDS011;60933;46.398;-63.798;2023-06-14T07:24:05;16.38;;;11.32;;
66702;SDS011;60933;46.398;-63.798;2023-06-14T07:26:33;17.58;;;12.07;;
66702;SDS011;60933;46.398;-63.798;2023-06-14T07:29:00;19.48;;;11.70;;
66702;SDS011;60933;46.398;-63.798;2023-06-14T07:31:29;18.25;;;11.82;;
66702;SDS011;60933;46.398;-63.798;2023-06-14T07:33:55;17.27;;;11.52;;
66702;SDS011;60933;46.398;-63.798;2023-06-14T07:36:22;16.40;;;10.93;;
66702;SDS011;60933;46.398;-63.798;2023-06-14T07:38:48;16.83;;;11.02;;
66702;SDS011;60933;46.398;-63.798;2023-06-14T07:41:15;19.10;;;12.07;;
66702;SDS011;60933;46.398;-63.798;2023-06-14T07:43:41;15.65;;;10.82;;
66702;SDS011;60933;46.398;-63.798;2023-06-14T07:46:07;19.17;;;12.20;;
66702;SDS011;60933;46.398;-63.798;2023-06-14T07:48:34;20.95;;;12.05;;
66702;SDS011;60933;46.398;-63.798;2023-06-14T07:51:00;17.90;;;11.35;;
66702;SDS011;60933;46.398;-63.798;2023-06-14T07:53:27;26.92;;;12.35;;
66702;SDS011;60933;46.398;-63.798;2023-06-14T07:55:53;18.25;;;10.55;;
66702;SDS011;60933;46.398;-63.798;2023-06-14T07:58:22;16.27;;;9.93;;
66702;SDS011;60933;46.398;-63.798;2023-06-14T08:00:48;16.50;;;10.40;;
66702;SDS011;60933;46.398;-63.798;2023-06-14T08:03:15;17.95;;;10.48;;
66702;SDS011;60933;46.398;-63.798;2023-06-14T08:05:41;14.63;;;9.88;;
66702;SDS011;60933;46.398;-63.798;2023-06-14T08:08:07;19.35;;;11.90;;
66702;SDS011;60933;46.398;-63.798;2023-06-14T08:10:33;16.75;;;10.80;;
66702;SDS011;60933;46.398;-63.798;2023-06-14T08:12:59;19.27;;;12.25;;
66702;SDS011;60933;46.398;-63.798;2023-06-14T08:15:25;19.13;;;12.38;;
66702;SDS011;60933;46.398;-63.798;2023-06-14T08:17:51;17.38;;;11.00;;
66702;SDS011;60933;46.398;-63.798;2023-06-14T08:20:17;15.43;;;10.15;;
66702;SDS011;60933;46.398;-63.798;2023-06-14T08:22:43;18.05;;;11.38;;
66702;SDS011;60933;46.398;-63.798;2023-06-14T08:25:11;20.08;;;12.93;;
66702;SDS011;60933;46.398;-63.798;2023-06-14T08:27:38;18.58;;;11.43;;
66702;SDS011;60933;46.398;-63.798;2023-06-14T08:30:04;17.73;;;11.50;;
66702;SDS011;60933;46.398;-63.798;2023-06-14T08:32:30;19.50;;;12.63;;
66702;SDS011;60933;46.398;-63.798;2023-06-14T08:34:56;17.85;;;10.77;;
66702;SDS011;60933;46.398;-63.798;2023-06-14T08:37:23;19.25;;;12.38;;
66702;SDS011;60933;46.398;-63.798;2023-06-14T08:39:50;18.20;;;11.43;;
66702;SDS011;60933;46.398;-63.798;2023-06-14T08:42:16;16.17;;;10.38;;
66702;SDS011;60933;46.398;-63.798;2023-06-14T08:44:46;17.40;;;10.90;;
66702;SDS011;60933;46.398;-63.798;2023-06-14T08:47:12;16.92;;;10.88;;
66702;SDS011;60933;46.398;-63.798;2023-06-14T08:49:41;17.35;;;11.23;;
66702;SDS011;60933;46.398;-63.798;2023-06-14T08:52:12;18.27;;;11.57;;
66702;SDS011;60933;46.398;-63.798;2023-06-14T08:54:43;17.10;;;11.07;;
66702;SDS011;60933;46.398;-63.798;2023-06-14T08:57:14;14.10;;;9.50;;
66702;SDS011;60933;46.398;-63.798;2023-06-14T08:59:45;15.75;;;10.02;;
66702;SDS011;60933;46.398;-63.798;2023-06-14T09:02:18;14.73;;;9.60;;
66702;SDS011;60933;46.398;-63.798;2023-06-14T09:04:47;19.30;;;11.27;;
66702;SDS011;60933;46.398;-63.798;2023-06-14T09:07:15;16.73;;;10.60;;
66702;SDS011;60933;46.398;-63.798;2023-06-14T09:09:41;17.30;;;11.32;;
66702;SDS011;60933;46.398;-63.798;2023-06-14T09:12:08;17.67;;;11.15;;
66702;SDS011;60933;46.398;-63.798;2023-06-14T09:14:36;16.40;;;10.57;;
66702;SDS011;60933;46.398;-63.798;2023-06-14T09:17:05;19.52;;;10.50;;
66702;SDS011;60933;46.398;-63.798;2023-06-14T09:19:32;18.30;;;11.40;;
66702;SDS011;60933;46.398;-63.798;2023-06-14T09:22:02;16.27;;;10.95;;
66702;SDS011;60933;46.398;-63.798;2023-06-14T09:24:29;17.80;;;11.20;;
66702;SDS011;60933;46.398;-63.798;2023-06-14T09:26:55;17.60;;;11.20;;
66702;SDS011;60933;46.398;-63.798;2023-06-14T09:29:23;16.23;;;10.45;;
66702;SDS011;60933;46.398;-63.798;2023-06-14T09:31:49;16.20;;;10.35;;
66702;SDS011;60933;46.398;-63.798;2023-06-14T09:34:16;14.63;;;9.48;;
66702;SDS011;60933;46.398;-63.798;2023-06-14T09:36:44;14.88;;;10.02;;
66702;SDS011;60933;46.398;-63.798;2023-06-14T09:39:11;14.70;;;9.63;;
66702;SDS011;60933;46.398;-63.798;2023-06-14T09:41:44;18.23;;;11.25;;
66702;SDS011;60933;46.398;-63.798;2023-06-14T09:44:10;15.48;;;9.15;;
66702;SDS011;60933;46.398;-63.798;2023-06-14T09:46:37;13.82;;;8.80;;
66702;SDS011;60933;46.398;-63.798;2023-06-14T09:49:04;15.88;;;10.60;;
66702;SDS011;60933;46.398;-63.798;2023-06-14T09:51:31;16.77;;;11.18;;
66702;SDS011;60933;46.398;-63.798;2023-06-14T09:54:06;15.60;;;9.93;;
66702;SDS011;60933;46.398;-63.798;2023-06-14T09:56:36;16.90;;;10.45;;
66702;SDS011;60933;46.398;-63.798;2023-06-14T09:59:04;16.45;;;10.80;;
66702;SDS011;60933;46.398;-63.798;2023-06-14T10:01:35;17.92;;;11.57;;
66702;SDS011;60933;46.398;-63.798;2023-06-14T10:04:06;16.67;;;10.45;;
66702;SDS011;60933;46.398;-63.798;2023-06-14T10:06:35;19.60;;;11.40;;
66702;SDS011;60933;46.398;-63.798;2023-06-14T10:09:07;20.02;;;11.77;;
66702;SDS011;60933;46.398;-63.798;2023-06-14T10:11:35;15.63;;;10.00;;
66702;SDS011;60933;46.398;-63.798;2023-06-14T10:14:02;19.17;;;11.93;;
66702;SDS011;60933;46.398;-63.798;2023-06-14T10:16:32;18.70;;;11.75;;
66702;SDS011;60933;46.398;-63.798;2023-06-14T10:24:43;18.20;;;11.38;;
66702;SDS011;60933;46.398;-63.798;2023-06-14T10:27:14;17.27;;;10.65;;
66702;SDS011;60933;46.398;-63.798;2023-06-14T10:32:19;18.30;;;12.00;;
66702;SDS011;60933;46.398;-63.798;2023-06-14T10:34:52;16.67;;;11.10;;
66702;SDS011;60933;46.398;-63.798;2023-06-14T10:37:22;17.58;;;11.02;;
66702;SDS011;60933;46.398;-63.798;2023-06-14T10:39:52;20.48;;;11.98;;
66702;SDS011;60933;46.398;-63.798;2023-06-14T10:42:20;19.17;;;11.77;;
66702;SDS011;60933;46.398;-63.798;2023-06-14T10:44:54;18.63;;;11.45;;
66702;SDS011;60933;46.398;-63.798;2023-06-14T10:49:53;18.50;;;11.40;;
66702;SDS011;60933;46.398;-63.798;2023-06-14T10:52:31;16.52;;;10.65;;
66702;SDS011;60933;46.398;-63.798;2023-06-14T10:57:30;14.70;;;10.30;;
66702;SDS011;60933;46.398;-63.798;2023-06-14T10:59:59;17.48;;;10.75;;
66702;SDS011;60933;46.398;-63.798;2023-06-14T11:05:25;14.50;;;9.32;;
66702;SDS011;60933;46.398;-63.798;2023-06-14T11:07:55;17.33;;;10.80;;
66702;SDS011;60933;46.398;-63.798;2023-06-14T11:10:37;13.20;;;9.25;;
66702;SDS011;60933;46.398;-63.798;2023-06-14T11:13:07;14.27;;;9.20;;
66702;SDS011;60933;46.398;-63.798;2023-06-14T11:15:34;16.27;;;9.98;;
66702;SDS011;60933;46.398;-63.798;2023-06-14T11:18:02;15.32;;;9.55;;
66702;SDS011;60933;46.398;-63.798;2023-06-14T11:20:31;12.77;;;8.70;;
66702;SDS011;60933;46.398;-63.798;2023-06-14T11:22:59;13.00;;;9.07;;
66702;SDS011;60933;46.398;-63.798;2023-06-14T11:25:32;11.88;;;7.50;;
66702;SDS011;60933;46.398;-63.798;2023-06-14T11:27:59;12.07;;;7.57;;
66702;SDS011;60933;46.398;-63.798;2023-06-14T11:30:25;11.75;;;7.90;;
66702;SDS011;60933;46.398;-63.798;2023-06-14T11:32:52;12.02;;;8.10;;
66702;SDS011;60933;46.398;-63.798;2023-06-14T11:35:21;12.05;;;7.57;;
66702;SDS011;60933;46.398;-63.798;2023-06-14T11:37:54;12.63;;;8.48;;
66702;SDS011;60933;46.398;-63.798;2023-06-14T11:40:24;13.75;;;8.75;;
66702;SDS011;60933;46.398;-63.798;2023-06-14T11:43:00;15.13;;;9.27;;
66702;SDS011;60933;46.398;-63.798;2023-06-14T11:45:27;16.15;;;9.10;;
66702;SDS011;60933;46.398;-63.798;2023-06-14T11:47:56;11.52;;;8.23;;
66702;SDS011;60933;46.398;-63.798;2023-06-14T11:50:23;11.90;;;7.75;;
66702;SDS011;60933;46.398;-63.798;2023-06-14T11:52:54;12.25;;;8.02;;
66702;SDS011;60933;46.398;-63.798;2023-06-14T11:55:21;13.05;;;8.75;;
66702;SDS011;60933;46.398;-63.798;2023-06-14T11:57:48;13.57;;;9.27;;
66702;SDS011;60933;46.398;-63.798;2023-06-14T12:00:14;13.70;;;8.13;;
66702;SDS011;60933;46.398;-63.798;2023-06-14T12:02:41;12.70;;;8.57;;
66702;SDS011;60933;46.398;-63.798;2023-06-14T12:05:08;11.38;;;7.53;;
66702;SDS011;60933;46.398;-63.798;2023-06-14T12:07:38;10.00;;;7.13;;
66702;SDS011;60933;46.398;-63.798;2023-06-14T12:10:08;10.40;;;7.55;;
66702;SDS011;60933;46.398;-63.798;2023-06-14T12:12:39;10.07;;;6.70;;
66702;SDS011;60933;46.398;-63.798;2023-06-14T12:15:06;9.30;;;6.25;;
66702;SDS011;60933;46.398;-63.798;2023-06-14T12:17:38;10.90;;;6.70;;
66702;SDS011;60933;46.398;-63.798;2023-06-14T12:20:10;8.73;;;6.20;;
66702;SDS011;60933;46.398;-63.798;2023-06-14T12:25:34;10.82;;;7.22;;
66702;SDS011;60933;46.398;-63.798;2023-06-14T12:28:08;11.05;;;7.30;;
66702;SDS011;60933;46.398;-63.798;2023-06-14T12:30:35;10.55;;;6.63;;
66702;SDS011;60933;46.398;-63.798;2023-06-14T12:33:02;8.95;;;6.63;;
66702;SDS011;60933;46.398;-63.798;2023-06-14T12:35:29;10.57;;;7.13;;
66702;SDS011;60933;46.398;-63.798;2023-06-14T12:37:55;10.40;;;7.15;;
66702;SDS011;60933;46.398;-63.798;2023-06-14T12:40:21;9.05;;;6.65;;
66702;SDS011;60933;46.398;-63.798;2023-06-14T12:42:48;8.82;;;5.90;;
66702;SDS011;60933;46.398;-63.798;2023-06-14T12:45:14;8.80;;;6.18;;
66702;SDS011;60933;46.398;-63.798;2023-06-14T12:47:41;11.07;;;6.00;;
66702;SDS011;60933;46.398;-63.798;2023-06-14T12:50:07;9.95;;;5.90;;
66702;SDS011;60933;46.398;-63.798;2023-06-14T12:52:34;9.60;;;6.25;;
66702;SDS011;60933;46.398;-63.798;2023-06-14T12:55:06;8.77;;;5.90;;
66702;SDS011;60933;46.398;-63.798;2023-06-14T12:57:33;8.90;;;5.68;;
66702;SDS011;60933;46.398;-63.798;2023-06-14T13:00:02;8.02;;;5.35;;
66702;SDS011;60933;46.398;-63.798;2023-06-14T13:02:28;9.18;;;5.57;;
66702;SDS011;60933;46.398;-63.798;2023-06-14T13:04:54;8.88;;;5.65;;
66702;SDS011;60933;46.398;-63.798;2023-06-14T13:07:21;7.88;;;4.95;;
66702;SDS011;60933;46.398;-63.798;2023-06-14T13:09:47;8.80;;;6.03;;
66702;SDS011;60933;46.398;-63.798;2023-06-14T13:12:13;9.90;;;5.30;;
66702;SDS011;60933;46.398;-63.798;2023-06-14T13:14:40;7.25;;;5.10;;
66702;SDS011;60933;46.398;-63.798;2023-06-14T13:17:07;8.10;;;5.47;;
66702;SDS011;60933;46.398;-63.798;2023-06-14T13:19:35;7.88;;;5.38;;
66702;SDS011;60933;46.398;-63.798;2023-06-14T13:22:02;8.70;;;5.38;;
66702;SDS011;60933;46.398;-63.798;2023-06-14T13:24:28;7.00;;;5.18;;
66702;SDS011;60933;46.398;-63.798;2023-06-14T13:26:55;9.68;;;5.22;;
66702;SDS011;60933;46.398;-63.798;2023-06-14T13:29:22;8.45;;;5.38;;
66702;SDS011;60933;46.398;-63.798;2023-06-14T13:31:49;8.57;;;5.68;;
66702;SDS011;60933;46.398;-63.798;2023-06-14T13:34:15;8.02;;;5.32;;
66702;SDS011;60933;46.398;-63.798;2023-06-14T13:36:42;8.23;;;5.57;;
66702;SDS011;60933;46.398;-63.798;2023-06-14T13:39:08;7.35;;;5.50;;
66702;SDS011;60933;46.398;-63.798;2023-06-14T13:41:34;7.93;;;5.20;;
66702;SDS011;60933;46.398;-63.798;2023-06-14T13:44:00;10.10;;;5.40;;
66702;SDS011;60933;46.398;-63.798;2023-06-14T13:46:29;8.20;;;5.55;;
66702;SDS011;60933;46.398;-63.798;2023-06-14T13:48:56;8.05;;;5.25;;
66702;SDS011;60933;46.398;-63.798;2023-06-14T13:51:25;7.32;;;5.10;;
66702;SDS011;60933;46.398;-63.798;2023-06-14T13:53:52;6.60;;;4.85;;
66702;SDS011;60933;46.398;-63.798;2023-06-14T13:56:20;6.72;;;4.80;;
66702;SDS011;60933;46.398;-63.798;2023-06-14T13:58:47;7.50;;;5.15;;
66702;SDS011;60933;46.398;-63.798;2023-06-14T14:01:14;7.95;;;5.38;;
66702;SDS011;60933;46.398;-63.798;2023-06-14T14:03:40;7.80;;;5.55;;
66702;SDS011;60933;46.398;-63.798;2023-06-14T14:06:06;7.10;;;5.00;;
66702;SDS011;60933;46.398;-63.798;2023-06-14T14:08:32;7.72;;;5.25;;
66702;SDS011;60933;46.398;-63.798;2023-06-14T14:10:58;7.72;;;5.30;;
66702;SDS011;60933;46.398;-63.798;2023-06-14T14:13:25;8.43;;;5.25;;
66702;SDS011;60933;46.398;-63.798;2023-06-14T14:15:51;6.85;;;5.18;;
66702;SDS011;60933;46.398;-63.798;2023-06-14T14:18:17;8.77;;;5.60;;
66702;SDS011;60933;46.398;-63.798;2023-06-14T14:20:46;9.05;;;6.15;;
66702;SDS011;60933;46.398;-63.798;2023-06-14T14:23:12;8.85;;;5.70;;
66702;SDS011;60933;46.398;-63.798;2023-06-14T14:25:39;9.73;;;6.03;;
66702;SDS011;60933;46.398;-63.798;2023-06-14T14:28:05;7.85;;;5.40;;
66702;SDS011;60933;46.398;-63.798;2023-06-14T14:30:34;7.70;;;5.63;;